createdAt,value
2017-06-29T00:01:49.752Z,33.20
2017-06-29T00:04:19.267Z,33.20
2017-06-29T00:06:47.786Z,33.20
2017-06-29T00:09:15.925Z,33.20
2017-06-29T00:11:44.525Z,33.10
2017-06-29T00:14:13.103Z,33.10
2017-06-29T00:16:41.889Z,33.10
2017-06-29T00:19:10.897Z,33.00
2017-06-29T00:21:38.998Z,33.00
2017-06-29T00:24:07.172Z,33.00
2017-06-29T00:26:35.958Z,33.00
2017-06-29T00:29:04.541Z,33.00
2017-06-29T00:31:33.193Z,32.90
2017-06-29T00:34:02.098Z,32.90
2017-06-29T00:36:30.945Z,32.90
2017-06-29T00:38:59.081Z,32.90
2017-06-29T00:41:27.941Z,32.90
2017-06-29T00:43:56.638Z,32.90
2017-06-29T00:46:25.437Z,32.90
2017-06-29T00:48:54.185Z,33.00
2017-06-29T00:51:22.389Z,33.00
2017-06-29T00:53:51.182Z,32.90
2017-06-29T00:56:19.441Z,32.90
2017-06-29T00:58:48.977Z,32.80
2017-06-29T01:01:17.190Z,32.80
2017-06-29T01:03:45.961Z,32.80
2017-06-29T01:06:14.822Z,32.80
2017-06-29T01:08:43.677Z,32.80
2017-06-29T01:11:12.371Z,32.60
2017-06-29T01:13:40.493Z,32.60
2017-06-29T01:16:09.325Z,32.60
2017-06-29T01:18:38.269Z,32.60
2017-06-29T01:21:06.830Z,32.70
2017-06-29T01:23:35.521Z,32.70
2017-06-29T01:26:04.411Z,32.70
2017-06-29T01:28:33.960Z,32.80
2017-06-29T01:31:02.498Z,32.80
2017-06-29T01:33:31.922Z,32.70
2017-06-29T01:36:00.594Z,32.70
2017-06-29T01:38:29.298Z,32.70
2017-06-29T01:40:57.601Z,32.70
2017-06-29T01:43:26.187Z,32.70
2017-06-29T01:45:54.870Z,32.50
2017-06-29T01:48:23.937Z,32.50
2017-06-29T01:50:52.740Z,32.50
2017-06-29T01:53:20.913Z,32.50
2017-06-29T01:55:49.881Z,32.60
2017-06-29T01:58:18.103Z,32.60
2017-06-29T02:00:46.752Z,32.60
2017-06-29T02:03:15.482Z,32.70
2017-06-29T02:05:43.652Z,32.60
2017-06-29T02:08:12.297Z,32.70
2017-06-29T02:10:41.021Z,32.70
2017-06-29T02:13:09.779Z,32.80
2017-06-29T02:15:38.538Z,32.80
2017-06-29T02:18:07.637Z,32.90
2017-06-29T02:20:36.391Z,32.90
2017-06-29T02:23:04.977Z,32.80
2017-06-29T02:25:33.825Z,32.90
2017-06-29T02:28:02.626Z,32.80
2017-06-29T02:30:31.417Z,32.90
2017-06-29T02:33:00.472Z,33.00
2017-06-29T02:35:28.618Z,33.00
2017-06-29T02:37:57.261Z,33.10
2017-06-29T02:40:26.866Z,33.10
2017-06-29T02:42:56.401Z,33.20
2017-06-29T02:45:24.961Z,33.20
2017-06-29T02:47:53.793Z,33.20
2017-06-29T02:50:22.438Z,33.30
2017-06-29T02:52:51.886Z,33.50
2017-06-29T02:55:20.633Z,33.50
2017-06-29T02:57:49.334Z,33.50
2017-06-29T03:00:18.133Z,33.60
2017-06-29T03:02:47.129Z,33.70
2017-06-29T03:05:15.937Z,33.80
2017-06-29T03:07:44.638Z,33.50
2017-06-29T03:10:13.487Z,33.40
2017-06-29T03:12:42.166Z,33.60
2017-06-29T03:15:10.762Z,33.60
2017-06-29T03:17:39.650Z,33.60
2017-06-29T03:20:09.041Z,33.80
2017-06-29T03:22:38.389Z,34.00
2017-06-29T03:25:06.530Z,33.90
2017-06-29T03:27:34.897Z,34.10
2017-06-29T03:30:04.447Z,34.10
2017-06-29T03:32:33.109Z,34.10
2017-06-29T03:35:01.266Z,33.90
2017-06-29T03:37:31.437Z,34.40
2017-06-29T03:40:00.085Z,34.40
2017-06-29T03:42:28.661Z,34.60
2017-06-29T03:44:57.366Z,34.60
2017-06-29T03:47:26.353Z,34.90
2017-06-29T03:49:55.157Z,35.00
2017-06-29T03:52:23.728Z,34.80
2017-06-29T03:54:52.549Z,34.90
2017-06-29T03:57:21.198Z,35.00
2017-06-29T03:59:49.853Z,35.10
2017-06-29T04:02:18.698Z,35.00
2017-06-29T04:04:47.504Z,35.20
2017-06-29T04:07:16.089Z,35.40
2017-06-29T04:09:44.359Z,35.60
2017-06-29T04:12:13.329Z,35.80
2017-06-29T04:14:42.234Z,35.90
2017-06-29T04:17:11.229Z,36.00
2017-06-29T04:19:39.324Z,36.10
2017-06-29T04:22:07.502Z,36.20
2017-06-29T04:24:37.165Z,36.40
2017-06-29T04:27:05.870Z,36.70
2017-06-29T04:29:34.569Z,36.90
2017-06-29T04:32:03.241Z,37.20
2017-06-29T04:34:31.905Z,37.40
2017-06-29T04:37:01.277Z,37.70
2017-06-29T04:39:30.146Z,37.70
2017-06-29T04:41:58.799Z,37.90
2017-06-29T04:44:27.696Z,38.20
2017-06-29T04:46:56.593Z,38.60
2017-06-29T04:49:25.441Z,39.00
2017-06-29T04:51:54.181Z,39.30
2017-06-29T04:54:22.786Z,39.80
2017-06-29T04:56:51.373Z,41.00
2017-06-29T04:59:20.092Z,42.10
2017-06-29T05:01:48.785Z,43.50
2017-06-29T05:04:18.429Z,45.60
2017-06-29T05:06:47.226Z,45.50
2017-06-29T05:09:15.974Z,46.10
2017-06-29T05:11:45.573Z,45.50
2017-06-29T05:14:13.849Z,45.50
2017-06-29T05:16:42.603Z,44.30
2017-06-29T05:19:11.297Z,44.30
2017-06-29T05:21:40.178Z,44.00
2017-06-29T05:24:08.501Z,43.80
2017-06-29T05:26:38.063Z,44.30
2017-06-29T05:29:06.953Z,44.30
2017-06-29T05:31:35.712Z,45.10
2017-06-29T05:34:05.304Z,47.30
2017-06-29T05:36:34.742Z,47.80
2017-06-29T05:39:03.633Z,47.80
2017-06-29T05:41:32.438Z,47.50
2017-06-29T05:44:00.637Z,48.40
2017-06-29T05:46:29.593Z,48.80
2017-06-29T05:48:58.281Z,47.80
2017-06-29T05:51:27.037Z,47.10
2017-06-29T05:53:56.686Z,45.90
2017-06-29T05:56:25.477Z,45.90
2017-06-29T05:58:54.273Z,45.60
2017-06-29T06:01:23.817Z,45.50
2017-06-29T06:03:52.465Z,45.60
2017-06-29T06:06:21.258Z,45.20
2017-06-29T06:08:50.249Z,45.00
2017-06-29T06:11:18.433Z,45.00
2017-06-29T06:13:47.201Z,45.60
2017-06-29T06:16:16.193Z,46.70
2017-06-29T06:18:44.985Z,47.50
2017-06-29T06:21:13.789Z,47.50
2017-06-29T06:23:42.785Z,49.00
2017-06-29T06:26:11.629Z,49.50
2017-06-29T06:28:41.169Z,48.90
2017-06-29T06:31:10.062Z,48.90
2017-06-29T06:33:38.921Z,49.80
2017-06-29T06:36:08.365Z,48.50
2017-06-29T06:38:37.248Z,48.50
2017-06-29T06:41:06.005Z,48.40
2017-06-29T06:43:35.353Z,47.70
2017-06-29T06:46:04.385Z,47.70
2017-06-29T06:48:33.345Z,47.30
2017-06-29T06:51:02.134Z,47.60
2017-06-29T06:53:31.435Z,47.20
2017-06-29T06:55:59.641Z,47.10
2017-06-29T06:58:28.187Z,47.30
2017-06-29T07:00:57.189Z,47.00
2017-06-29T07:03:26.081Z,47.20
2017-06-29T07:05:54.285Z,46.40
2017-06-29T07:08:23.086Z,46.70
2017-06-29T07:10:51.937Z,46.80
2017-06-29T07:13:20.785Z,46.80
2017-06-29T07:15:50.468Z,47.00
2017-06-29T07:18:19.322Z,46.90
2017-06-29T07:20:48.222Z,47.80
2017-06-29T07:23:17.217Z,48.60
2017-06-29T07:25:46.109Z,49.30
2017-06-29T07:28:15.006Z,49.80
2017-06-29T07:30:43.704Z,50.00
2017-06-29T07:33:12.413Z,50.60
2017-06-29T07:35:41.175Z,51.50
2017-06-29T07:38:10.113Z,51.20
2017-06-29T07:40:39.501Z,50.50
2017-06-29T07:43:08.355Z,50.40
2017-06-29T07:45:37.350Z,49.70
2017-06-29T07:48:05.549Z,49.50
2017-06-29T07:50:34.209Z,48.80
2017-06-29T07:53:02.996Z,47.70
2017-06-29T07:55:31.880Z,46.50
2017-06-29T07:58:00.799Z,46.20
2017-06-29T08:00:29.545Z,45.90
2017-06-29T08:02:58.188Z,45.70
2017-06-29T08:05:26.949Z,45.70
2017-06-29T08:07:55.277Z,45.60
2017-06-29T08:10:24.837Z,45.60
2017-06-29T08:12:53.744Z,45.60
2017-06-29T08:15:22.493Z,45.60
2017-06-29T08:17:51.208Z,45.80
2017-06-29T08:20:20.087Z,45.50
2017-06-29T08:22:48.990Z,45.50
2017-06-29T08:25:17.833Z,45.50
2017-06-29T08:27:47.281Z,45.50
2017-06-29T08:30:16.165Z,45.50
2017-06-29T08:32:44.345Z,45.50
2017-06-29T08:35:13.021Z,45.50
2017-06-29T08:37:41.933Z,45.50
2017-06-29T08:40:10.620Z,45.50
2017-06-29T08:42:39.513Z,45.50
2017-06-29T08:45:08.205Z,45.50
2017-06-29T08:47:36.769Z,45.60
2017-06-29T08:50:05.577Z,45.70
2017-06-29T08:52:34.564Z,45.60
2017-06-29T08:55:03.415Z,45.30
2017-06-29T08:57:32.748Z,45.00
2017-06-29T09:00:01.753Z,45.00
2017-06-29T09:02:30.601Z,44.90
2017-06-29T09:05:00.138Z,44.40
2017-06-29T09:07:29.033Z,44.40
2017-06-29T09:09:57.837Z,44.50
2017-06-29T09:12:26.725Z,44.50
2017-06-29T09:14:55.825Z,44.50
2017-06-29T09:17:23.984Z,44.20
2017-06-29T09:19:52.677Z,44.10
2017-06-29T09:22:21.674Z,44.20
2017-06-29T09:24:50.499Z,44.20
2017-06-29T09:27:19.321Z,44.10
2017-06-29T09:29:48.862Z,44.30
2017-06-29T09:32:17.556Z,44.20
2017-06-29T09:34:46.401Z,43.80
2017-06-29T09:37:15.994Z,43.40
2017-06-29T09:39:44.737Z,43.40
2017-06-29T09:42:13.533Z,43.20
2017-06-29T09:44:42.481Z,43.20
2017-06-29T09:47:10.713Z,43.00
2017-06-29T09:49:39.381Z,42.90
2017-06-29T09:52:07.657Z,42.70
2017-06-29T09:54:36.249Z,42.50
2017-06-29T09:57:04.929Z,42.30
2017-06-29T09:59:33.820Z,42.40
2017-06-29T10:02:02.725Z,42.40
2017-06-29T10:04:31.617Z,42.50
2017-06-29T10:07:00.665Z,42.50
2017-06-29T10:09:30.209Z,42.40
2017-06-29T10:11:58.909Z,42.30
2017-06-29T10:14:27.225Z,42.30
2017-06-29T10:16:55.873Z,42.40
2017-06-29T10:19:24.653Z,42.30
2017-06-29T10:21:53.563Z,42.10
2017-06-29T10:24:22.550Z,41.70
2017-06-29T10:26:50.773Z,41.40
2017-06-29T10:29:19.657Z,41.40
2017-06-29T10:31:48.398Z,41.50
2017-06-29T10:34:17.097Z,41.40
2017-06-29T10:36:46.084Z,41.10
2017-06-29T10:39:14.285Z,41.10
2017-06-29T10:41:42.938Z,41.20
2017-06-29T10:44:11.829Z,41.30
2017-06-29T10:46:40.633Z,41.10
2017-06-29T10:49:09.377Z,41.10
2017-06-29T10:51:38.914Z,41.20
2017-06-29T10:54:07.716Z,41.10
2017-06-29T10:56:36.562Z,40.90
2017-06-29T10:59:06.101Z,40.90
2017-06-29T11:01:34.342Z,40.90
2017-06-29T11:04:03.801Z,40.80
2017-06-29T11:06:32.793Z,40.80
2017-06-29T11:09:01.685Z,40.70
2017-06-29T11:11:30.529Z,40.60
2017-06-29T11:14:00.070Z,40.50
2017-06-29T11:16:28.889Z,40.50
2017-06-29T11:18:57.717Z,40.60
2017-06-29T11:21:27.301Z,40.70
2017-06-29T11:23:56.061Z,40.70
2017-06-29T11:26:24.906Z,40.80
2017-06-29T11:28:54.605Z,40.90
2017-06-29T11:31:23.233Z,40.90
2017-06-29T11:33:51.482Z,40.80
2017-06-29T11:36:20.005Z,40.80
2017-06-29T11:38:48.686Z,40.80
2017-06-29T11:41:17.489Z,40.70
2017-06-29T11:43:45.781Z,40.80
2017-06-29T11:46:14.441Z,40.70
2017-06-29T11:48:43.241Z,40.70
2017-06-29T11:51:12.134Z,40.70
2017-06-29T11:53:41.285Z,40.60
2017-06-29T11:56:09.459Z,40.60
2017-06-29T11:58:39.115Z,40.60
2017-06-29T12:01:07.905Z,40.60
2017-06-29T12:03:36.797Z,40.50
2017-06-29T12:06:05.798Z,40.60
2017-06-29T12:08:34.789Z,40.70
2017-06-29T12:11:03.681Z,40.70
2017-06-29T12:13:32.369Z,40.60
2017-06-29T12:16:00.497Z,40.60
2017-06-29T12:18:28.834Z,40.60
2017-06-29T12:20:58.633Z,40.40
2017-06-29T12:23:26.754Z,40.40
2017-06-29T12:25:55.377Z,40.50
2017-06-29T12:28:24.269Z,40.50
2017-06-29T12:30:53.073Z,40.50
2017-06-29T12:33:21.922Z,40.30
2017-06-29T12:35:51.613Z,40.10
2017-06-29T12:38:20.265Z,40.10
2017-06-29T12:40:49.005Z,40.10
2017-06-29T12:43:17.349Z,40.10
2017-06-29T12:45:46.109Z,40.10
2017-06-29T12:48:14.909Z,40.00
2017-06-29T12:50:44.096Z,40.00
2017-06-29T12:53:12.797Z,40.10
2017-06-29T12:55:41.641Z,40.10
2017-06-29T12:58:11.234Z,40.10
2017-06-29T13:00:39.873Z,40.00
2017-06-29T13:03:08.669Z,40.00
2017-06-29T13:05:37.665Z,39.90
2017-06-29T13:08:06.518Z,39.90
2017-06-29T13:10:35.845Z,39.90
2017-06-29T13:13:04.853Z,39.90
2017-06-29T13:15:33.698Z,39.90
2017-06-29T13:18:03.033Z,39.90
2017-06-29T13:20:31.838Z,39.90
2017-06-29T13:23:00.631Z,39.80
2017-06-29T13:25:29.677Z,39.80
2017-06-29T13:27:59.324Z,39.70
2017-06-29T13:30:28.209Z,39.70
2017-06-29T13:32:57.014Z,39.70
2017-06-29T13:35:26.009Z,39.70
2017-06-29T13:37:54.853Z,39.60
2017-06-29T13:40:24.293Z,39.60
2017-06-29T13:42:53.296Z,39.60
2017-06-29T13:45:22.090Z,39.60
2017-06-29T13:47:51.085Z,39.50
2017-06-29T13:50:20.077Z,39.50
2017-06-29T13:52:48.969Z,39.50
2017-06-29T13:55:17.757Z,39.40
2017-06-29T13:57:46.810Z,39.40
2017-06-29T14:00:16.345Z,39.30
2017-06-29T14:02:45.049Z,39.30
2017-06-29T14:05:13.385Z,39.30
2017-06-29T14:07:42.889Z,39.30
2017-06-29T14:10:12.325Z,39.20
2017-06-29T14:12:41.235Z,39.20
2017-06-29T14:15:09.426Z,39.20
2017-06-29T14:17:38.192Z,39.10
2017-06-29T14:20:07.077Z,39.10
2017-06-29T14:22:35.291Z,39.00
2017-06-29T14:25:03.505Z,39.10
2017-06-29T14:27:32.959Z,39.00
2017-06-29T14:30:01.623Z,39.00
2017-06-29T14:32:30.549Z,39.00
2017-06-29T14:34:59.728Z,39.00
2017-06-29T14:37:28.574Z,38.90
2017-06-29T14:39:57.906Z,38.90
2017-06-29T14:42:26.916Z,38.80
2017-06-29T14:44:55.657Z,38.80
2017-06-29T14:47:23.857Z,38.80
2017-06-29T14:49:52.701Z,38.80
2017-06-29T14:52:20.865Z,38.80
2017-06-29T14:54:49.037Z,38.70
2017-06-29T14:57:17.897Z,38.60
2017-06-29T14:59:46.705Z,38.60
2017-06-29T15:02:14.874Z,38.50
2017-06-29T15:04:43.112Z,38.60
2017-06-29T15:07:12.542Z,38.50
2017-06-29T15:09:41.349Z,38.50
2017-06-29T15:12:09.677Z,38.50
2017-06-29T15:14:37.797Z,38.40
2017-06-29T15:17:06.589Z,38.40
2017-06-29T15:19:35.291Z,38.30
2017-06-29T15:22:03.997Z,38.30
2017-06-29T15:24:32.645Z,38.20
2017-06-29T15:27:01.537Z,38.20
2017-06-29T15:29:30.333Z,38.20
2017-06-29T15:31:59.181Z,38.20
2017-06-29T15:34:28.870Z,38.20
2017-06-29T15:36:57.509Z,38.10
2017-06-29T15:39:26.364Z,38.10
2017-06-29T15:41:55.845Z,38.10
2017-06-29T15:44:24.709Z,38.00
2017-06-29T15:46:54.345Z,38.00
2017-06-29T15:49:23.092Z,38.00
2017-06-29T15:51:51.889Z,38.00
2017-06-29T15:54:20.741Z,38.00
2017-06-29T15:56:50.277Z,38.00
2017-06-29T15:59:18.964Z,37.90
2017-06-29T16:01:47.773Z,37.90
2017-06-29T16:04:16.721Z,37.90
2017-06-29T16:06:46.058Z,37.90
2017-06-29T16:09:14.856Z,37.80
2017-06-29T16:11:43.806Z,37.80
2017-06-29T16:14:13.249Z,37.80
2017-06-29T16:16:41.945Z,37.80
2017-06-29T16:19:10.261Z,37.80
2017-06-29T16:21:38.901Z,37.80
2017-06-29T16:24:07.101Z,37.70
2017-06-29T16:26:35.844Z,37.70
2017-06-29T16:29:05.437Z,37.70
2017-06-29T16:31:34.816Z,37.70
2017-06-29T16:34:03.776Z,37.70
2017-06-29T16:36:32.773Z,37.70
2017-06-29T16:39:01.017Z,37.60
2017-06-29T16:41:29.273Z,37.60
2017-06-29T16:43:58.069Z,37.60
2017-06-29T16:46:26.601Z,37.60
2017-06-29T16:48:55.473Z,37.60
2017-06-29T16:51:24.169Z,37.60
2017-06-29T16:53:53.025Z,37.60
2017-06-29T16:56:22.668Z,37.50
2017-06-29T16:58:51.368Z,37.40
2017-06-29T17:01:19.589Z,37.50
2017-06-29T17:03:48.365Z,37.50
2017-06-29T17:06:17.121Z,37.40
2017-06-29T17:08:45.913Z,37.40
2017-06-29T17:11:14.961Z,37.40
2017-06-29T17:13:44.297Z,37.30
2017-06-29T17:16:12.996Z,37.30
2017-06-29T17:18:41.361Z,37.30
2017-06-29T17:21:10.005Z,37.20
2017-06-29T17:23:38.637Z,37.20
2017-06-29T17:26:07.645Z,37.20
2017-06-29T17:28:36.490Z,37.20
2017-06-29T17:31:05.929Z,37.10
2017-06-29T17:33:35.755Z,37.00
2017-06-29T17:36:04.376Z,37.10
2017-06-29T17:38:32.729Z,37.00
2017-06-29T17:41:01.770Z,37.10
2017-06-29T17:43:31.131Z,37.00
2017-06-29T17:45:59.905Z,37.00
2017-06-29T17:48:28.902Z,37.00
2017-06-29T17:50:57.744Z,37.00
2017-06-29T17:53:27.086Z,37.00
2017-06-29T17:55:56.093Z,37.00
2017-06-29T17:58:24.880Z,37.00
2017-06-29T18:00:53.081Z,36.90
2017-06-29T18:03:21.845Z,36.90
2017-06-29T18:05:50.635Z,36.80
2017-06-29T18:08:19.425Z,36.80
2017-06-29T18:10:48.417Z,36.80
2017-06-29T18:13:17.313Z,36.70
2017-06-29T18:15:46.209Z,36.70
2017-06-29T18:18:14.907Z,36.70
2017-06-29T18:20:43.504Z,36.70
2017-06-29T18:23:12.249Z,36.70
2017-06-29T18:25:41.157Z,36.70
2017-06-29T18:28:10.001Z,36.70
2017-06-29T18:30:39.345Z,36.70
2017-06-29T18:33:07.705Z,36.70
2017-06-29T18:35:36.145Z,36.70
2017-06-29T18:38:04.893Z,36.60
2017-06-29T18:40:33.986Z,36.60
2017-06-29T18:43:02.684Z,36.60
2017-06-29T18:45:31.479Z,36.60
2017-06-29T18:48:00.170Z,36.60
2017-06-29T18:50:28.837Z,36.60
2017-06-29T18:52:57.537Z,36.60
2017-06-29T18:55:26.528Z,36.50
2017-06-29T18:57:54.732Z,36.50
2017-06-29T19:00:23.385Z,36.50
2017-06-29T19:02:52.237Z,36.50
2017-06-29T19:05:21.672Z,36.40
2017-06-29T19:07:50.481Z,36.40
2017-06-29T19:10:19.460Z,36.40
2017-06-29T19:12:48.365Z,36.40
2017-06-29T19:15:17.214Z,36.40
2017-06-29T19:17:46.854Z,36.30
2017-06-29T19:20:15.553Z,36.30
2017-06-29T19:22:44.450Z,36.40
2017-06-29T19:25:13.397Z,36.30
2017-06-29T19:27:42.834Z,36.20
2017-06-29T19:30:11.737Z,36.20
2017-06-29T19:32:40.581Z,36.20
2017-06-29T19:35:09.917Z,36.10
2017-06-29T19:37:38.722Z,36.10
2017-06-29T19:40:07.034Z,36.10
2017-06-29T19:42:35.825Z,36.10
2017-06-29T19:45:04.089Z,36.10
2017-06-29T19:47:33.113Z,36.10
2017-06-29T19:50:02.553Z,36.00
2017-06-29T19:52:31.357Z,36.00
2017-06-29T19:55:00.349Z,36.00
2017-06-29T19:57:29.141Z,36.00
2017-06-29T19:59:58.133Z,36.00
2017-06-29T20:02:26.841Z,36.00
2017-06-29T20:04:55.013Z,36.00
2017-06-29T20:07:23.884Z,36.00
2017-06-29T20:09:52.937Z,35.90
2017-06-29T20:12:22.369Z,35.90
2017-06-29T20:14:51.077Z,35.90
2017-06-29T20:17:20.069Z,35.80
2017-06-29T20:19:49.173Z,35.90
2017-06-29T20:22:17.957Z,35.80
2017-06-29T20:24:46.953Z,35.80
2017-06-29T20:27:15.797Z,35.80
2017-06-29T20:29:45.237Z,35.80
2017-06-29T20:32:14.140Z,35.80
2017-06-29T20:34:42.245Z,35.80
2017-06-29T20:37:10.892Z,35.80
2017-06-29T20:39:39.893Z,35.70
2017-06-29T20:42:08.686Z,35.70
2017-06-29T20:44:37.369Z,35.70
2017-06-29T20:47:06.145Z,35.60
2017-06-29T20:49:34.729Z,35.60
2017-06-29T20:52:03.493Z,35.60
2017-06-29T20:54:33.028Z,35.60
2017-06-29T20:57:01.717Z,35.50
2017-06-29T20:59:30.473Z,35.50
2017-06-29T21:01:58.717Z,35.60
2017-06-29T21:04:27.265Z,35.60
2017-06-29T21:06:55.385Z,35.50
2017-06-29T21:09:24.177Z,35.50
2017-06-29T21:11:52.929Z,35.50
2017-06-29T21:14:21.721Z,35.50
2017-06-29T21:16:50.717Z,35.50
2017-06-29T21:19:19.301Z,35.50
2017-06-29T21:21:47.981Z,35.40
2017-06-29T21:24:16.981Z,35.40
2017-06-29T21:26:45.725Z,35.40
2017-06-29T21:29:15.065Z,35.40
2017-06-29T21:31:43.966Z,35.30
2017-06-29T21:34:12.743Z,35.30
2017-06-29T21:36:41.545Z,35.40
2017-06-29T21:39:10.165Z,35.30
2017-06-29T21:41:38.804Z,35.30
2017-06-29T21:44:09.333Z,35.20
2017-06-29T21:46:38.329Z,35.20
2017-06-29T21:49:06.513Z,35.20
2017-06-29T21:51:35.029Z,35.20
2017-06-29T21:54:03.881Z,35.20
2017-06-29T21:56:32.582Z,35.20
2017-06-29T21:59:01.427Z,35.20
2017-06-29T22:01:30.970Z,35.10
2017-06-29T22:03:59.109Z,35.10
2017-06-29T22:06:27.290Z,35.10
2017-06-29T22:08:55.617Z,35.10
2017-06-29T22:11:24.116Z,35.10
2017-06-29T22:13:52.761Z,35.00
2017-06-29T22:16:21.669Z,35.10
2017-06-29T22:18:50.518Z,35.10
2017-06-29T22:21:19.853Z,35.00
2017-06-29T22:23:48.852Z,35.00
2017-06-29T22:26:17.701Z,35.10
2017-06-29T22:28:47.989Z,35.00
2017-06-29T22:31:16.737Z,34.90
2017-06-29T22:33:46.189Z,35.00
2017-06-29T22:36:14.341Z,34.90
2017-06-29T22:38:43.233Z,34.90
2017-06-29T22:41:11.409Z,34.90
2017-06-29T22:43:39.873Z,34.90
2017-06-29T22:46:08.681Z,34.90
2017-06-29T22:48:37.673Z,34.90
2017-06-29T22:51:06.569Z,34.90
2017-06-29T22:53:35.236Z,34.80
2017-06-29T22:56:03.772Z,34.80
2017-06-29T22:58:32.524Z,34.80
2017-06-29T23:01:01.474Z,34.80
2017-06-29T23:03:30.805Z,34.80
2017-06-29T23:05:59.570Z,34.80
2017-06-29T23:08:29.113Z,34.70
2017-06-29T23:10:57.905Z,34.70
2017-06-29T23:13:26.785Z,34.70
2017-06-29T23:15:55.031Z,34.70
2017-06-29T23:18:24.586Z,34.70
2017-06-29T23:20:53.100Z,34.70
2017-06-29T23:23:21.953Z,34.70
2017-06-29T23:25:50.097Z,34.70
2017-06-29T23:28:19.537Z,34.50
2017-06-29T23:30:48.486Z,34.50
2017-06-29T23:33:17.817Z,34.50
2017-06-29T23:35:46.620Z,34.50
2017-06-29T23:38:15.674Z,34.50
2017-06-29T23:40:45.005Z,34.50
2017-06-29T23:43:13.713Z,34.50
2017-06-29T23:45:42.659Z,34.40
2017-06-29T23:48:12.004Z,34.50
2017-06-29T23:50:41.002Z,34.40
2017-06-29T23:53:09.237Z,34.40
2017-06-29T23:55:38.736Z,34.50
2017-06-29T23:58:08.181Z,34.50
